Hovedside
METAR-TAF:

METAR-TAF

Lufthavner :

Spaa

Tomaszów Mazowiecki, Polen

breddegrad: 51-35-04N, lengdegrad: 020-05-52E, høyde over havet: 174 m

METAR: fraværende

Tid: 08:02 (06:02 UTC)

Varsel

Denne rapporten ble laget for 1 time og 2 minutter siden, klokken 05:00 UTC
Varsel gyldig fra 22. klokken 06 UTC til 22. klokken 18 UTC
Vind 3 kt fra Sør
Sikt 10 km eller mer
ingen skyer under 1500 m og ingen bygeskyer

TAF: EPTM 220500Z 2206/2218 19003KT CAVOK

Værobservasjoner og værvarsel for over 4000 flyplasser (METAR- og TAF-rapporter).

Tilgjengelige stasjoner er representert av de røde og gule prikkene på kartet.

Hold musepekeren over prikken for å se navnet på stasjonen.

Klikk så for å se værobservasjoner og -varsler.

For å forandre kartet kan du klikke på den grønne knappen med svart kryss for å zoome inn, på den grønne knappen med strek for å zoome ut, eller på de grønne pilene for å se tilstøtende kart.


METAR-TAF: